Time;durP1;ratioP1;P1;durP2;ratioP2;P2;SDS_P1;SDS_P2;PMS_P1;PMS_P2;Temp;Humidity;BMP_temperature;BMP_pressure;BME280_temperature;BME280_humidity;BME280_pressure;Samples;Min_cycle;Max_cycle;Signal;HPM_P1;HPM_P2
2024/04/17 04:00:30;;;;;;;4.15;3.75;;;5.00;99.90;;;;;;6358723;22;20361;31
2024/04/17 04:02:56;;;;;;;4.47;4.18;;;5.00;99.90;;;;;;5207321;27;20305;-73
2024/04/17 04:05:24;;;;;;;3.47;3.27;;;5.00;99.90;;;;;;5212504;27;20585;-72
2024/04/17 04:07:50;;;;;;;4.55;2.72;;;5.00;99.90;;;;;;5208590;27;20287;-72
2024/04/17 04:10:18;;;;;;;3.17;2.97;;;5.00;99.90;;;;;;5208618;27;20392;-73
2024/04/17 04:12:44;;;;;;;3.17;2.97;;;5.00;99.90;;;;;;5202700;27;22291;-72
2024/04/17 04:15:12;;;;;;;4.33;4.07;;;4.90;99.90;;;;;;5209037;27;20245;-72
2024/04/17 04:17:41;;;;;;;5.60;4.53;;;4.90;99.90;;;;;;5212794;27;20283;-72
2024/04/17 04:20:10;;;;;;;5.10;4.45;;;4.90;99.90;;;;;;5205965;27;20241;-72
2024/04/17 04:22:35;;;;;;;3.33;2.60;;;4.90;99.90;;;;;;5210489;27;20333;-72
2024/04/17 04:25:05;;;;;;;3.83;3.53;;;4.90;99.90;;;;;;5210009;27;20245;-72
2024/04/17 04:27:31;;;;;;;5.20;3.53;;;4.90;99.90;;;;;;5204260;27;20253;-72
2024/04/17 04:29:59;;;;;;;4.37;4.07;;;4.80;99.90;;;;;;5210743;27;20562;-72
2024/04/17 04:32:25;;;;;;;4.55;3.80;;;4.80;99.90;;;;;;5209744;27;20481;-73
2024/04/17 04:34:56;;;;;;;4.10;3.80;;;4.80;99.90;;;;;;5209933;27;20350;-73
2024/04/17 04:37:23;;;;;;;3.03;2.92;;;4.80;99.90;;;;;;5209319;27;20323;-73
2024/04/17 04:39:52;;;;;;;4.28;3.92;;;4.80;99.90;;;;;;5207085;27;20306;-73
2024/04/17 04:42:18;;;;;;;4.28;3.75;;;4.80;99.90;;;;;;5205800;27;20355;-73
2024/04/17 04:44:48;;;;;;;4.60;4.20;;;4.80;99.90;;;;;;5205580;27;20279;-72
2024/04/17 04:47:14;;;;;;;8.02;4.90;;;4.90;99.90;;;;;;5201432;27;20389;-72
2024/04/17 04:49:45;;;;;;;4.45;4.15;;;5.00;99.90;;;;;;5202810;27;20272;-72
2024/04/17 04:52:13;;;;;;;5.85;4.00;;;5.10;99.90;;;;;;5201878;27;20245;-72
2024/04/17 04:54:41;;;;;;;4.15;3.92;;;5.20;99.90;;;;;;5209950;27;20290;-72
2024/04/17 04:57:07;;;;;;;3.58;3.38;;;5.20;99.90;;;;;;5203756;27;20881;-73
2024/04/17 04:59:36;;;;;;;7.03;4.80;;;5.30;99.90;;;;;;5201449;27;20249;-72
2024/04/17 05:02:01;;;;;;;5.85;4.55;;;5.40;99.90;;;;;;5205500;27;20245;-73
2024/04/17 05:04:30;;;;;;;5.07;4.57;;;5.50;99.90;;;;;;5207414;27;20288;-73
2024/04/17 05:06:55;;;;;;;4.63;4.32;;;5.60;99.90;;;;;;5202127;27;20300;-73
2024/04/17 05:09:27;;;;;;;3.60;3.40;;;5.60;99.90;;;;;;5204835;27;20345;-72
2024/04/17 05:11:53;;;;;;;6.03;3.83;;;5.60;99.90;;;;;;5203628;27;20304;-72
2024/04/17 05:14:22;;;;;;;4.97;4.57;;;5.70;99.90;;;;;;5204470;27;20245;-72
2024/04/17 05:16:47;;;;;;;5.63;5.18;;;5.60;99.90;;;;;;5204850;27;20301;-72
2024/04/17 05:19:16;;;;;;;3.90;3.60;;;5.60;99.90;;;;;;5205129;27;20237;-72
2024/04/17 05:21:42;;;;;;;3.83;3.53;;;5.70;99.90;;;;;;5204987;27;20370;-73
2024/04/17 05:24:10;;;;;;;4.17;2.67;;;5.60;99.90;;;;;;5189937;27;20605;-72
2024/04/17 05:26:38;;;;;;;8.60;4.50;;;5.70;99.90;;;;;;5204243;27;20241;-72
2024/04/17 05:29:07;;;;;;;4.63;4.20;;;5.60;99.90;;;;;;5204822;27;20332;-72
2024/04/17 05:31:33;;;;;;;3.63;3.35;;;5.70;99.90;;;;;;5204521;27;20253;-72
2024/04/17 05:34:01;;;;;;;5.20;4.47;;;5.70;99.90;;;;;;5197453;27;20720;-72
2024/04/17 05:36:27;;;;;;;3.83;3.53;;;5.70;99.90;;;;;;5205959;27;20586;-73
2024/04/17 05:38:55;;;;;;;5.00;4.50;;;5.70;99.90;;;;;;5204161;27;20256;-72
2024/04/17 05:41:21;;;;;;;5.03;4.65;;;5.60;99.90;;;;;;5204839;27;20245;-73
2024/04/17 05:43:52;;;;;;;3.50;3.30;;;5.70;99.90;;;;;;5202392;27;20241;-73
2024/04/17 05:46:18;;;;;;;4.20;4.00;;;5.70;99.90;;;;;;5205443;27;20248;-72
2024/04/17 05:48:46;;;;;;;5.50;3.63;;;5.80;99.90;;;;;;5199314;27;20285;-72
2024/04/17 05:51:12;;;;;;;7.72;4.43;;;5.90;99.90;;;;;;5207183;27;20249;-73
2024/04/17 05:53:40;;;;;;;6.30;5.30;;;6.10;99.90;;;;;;5203814;27;20344;-72
2024/04/17 05:56:06;;;;;;;55.42;31.10;;;6.20;99.90;;;;;;5195396;27;20287;-72
2024/04/17 05:58:35;;;;;;;32.70;21.42;;;6.40;99.90;;;;;;5205752;27;20603;-72
2024/04/17 06:01:04;;;;;;;5.10;4.50;;;6.60;99.90;;;;;;5193054;27;20429;-72
2024/04/17 06:03:32;;;;;;;3.97;3.67;;;6.70;99.90;;;;;;5208079;27;20343;-72
2024/04/17 06:05:58;;;;;;;4.22;4.03;;;6.80;99.90;;;;;;5206840;27;20405;-71
2024/04/17 06:08:26;;;;;;;3.50;3.20;;;6.90;99.90;;;;;;5194329;27;20623;-71
2024/04/17 06:10:52;;;;;;;2.90;2.63;;;7.10;99.90;;;;;;5206314;27;20745;-72
2024/04/17 06:13:20;;;;;;;3.70;3.50;;;7.60;99.90;;;;;;5201092;27;20475;-73
2024/04/17 06:15:47;;;;;;;2.38;2.17;;;7.80;99.90;;;;;;5207345;27;20377;-73
2024/04/17 06:18:18;;;;;;;2.22;2.05;;;7.80;99.90;;;;;;5205652;27;20311;-72
2024/04/17 06:20:44;;;;;;;2.47;2.35;;;7.80;99.90;;;;;;5207285;27;20295;-72
2024/04/17 06:23:12;;;;;;;2.70;2.50;;;7.80;99.90;;;;;;5206325;27;20249;-71
2024/04/17 06:25:41;;;;;;;2.92;2.63;;;7.80;99.90;;;;;;5194262;27;20305;-72
2024/04/17 06:28:09;;;;;;;2.85;2.65;;;7.70;99.90;;;;;;5198340;27;21164;-72
2024/04/17 06:30:35;;;;;;;4.47;3.35;;;7.70;99.90;;;;;;5205277;27;20291;-71
2024/04/17 06:33:04;;;;;;;2.37;2.27;;;7.80;99.90;;;;;;5206559;27;20245;-72
2024/04/17 06:35:35;;;;;;;2.30;2.20;;;8.00;99.90;;;;;;5205927;27;20813;-72
2024/04/17 06:38:01;;;;;;;2.35;2.25;;;8.00;99.90;;;;;;5193865;27;20242;-72
2024/04/17 06:40:29;;;;;;;4.43;2.37;;;8.10;99.90;;;;;;5207200;27;20300;-72
2024/04/17 06:42:55;;;;;;;2.47;2.00;;;8.00;99.90;;;;;;5206335;27;20605;-72
2024/04/17 06:45:23;;;;;;;1.93;1.80;;;8.10;99.90;;;;;;5204452;27;20248;-73
2024/04/17 06:47:49;;;;;;;5.80;2.00;;;8.20;99.90;;;;;;5206716;27;20326;-72
2024/04/17 06:50:18;;;;;;;2.27;2.17;;;8.30;99.90;;;;;;5207499;27;20237;-73
2024/04/17 06:52:46;;;;;;;2.30;2.22;;;8.40;99.90;;;;;;5203824;27;20242;-73
2024/04/17 06:55:14;;;;;;;3.78;2.92;;;8.40;99.90;;;;;;5198991;27;20352;-70
2024/04/17 06:57:40;;;;;;;2.53;2.40;;;8.50;99.90;;;;;;5194822;27;21882;-73
2024/04/17 07:00:11;;;;;;;2.50;2.40;;;8.70;99.90;;;;;;5203646;27;20325;-73
2024/04/17 07:02:36;;;;;;;3.30;3.08;;;8.70;99.90;;;;;;5211108;27;20249;-73
2024/04/17 07:05:05;;;;;;;2.43;2.23;;;8.90;99.90;;;;;;5205902;27;20348;-72
2024/04/17 07:07:31;;;;;;;1.73;1.65;;;9.00;99.90;;;;;;5202852;27;20256;-73
2024/04/17 07:10:02;;;;;;;2.63;2.47;;;9.00;99.90;;;;;;5203674;27;20670;-72
2024/04/17 07:12:27;;;;;;;1.45;1.45;;;8.90;99.90;;;;;;5205406;27;20253;-73
2024/04/17 07:14:56;;;;;;;1.73;1.63;;;9.00;99.90;;;;;;5205158;27;20241;-72
2024/04/17 07:17:22;;;;;;;1.90;1.85;;;9.00;99.90;;;;;;5210098;27;20245;-73
2024/04/17 07:19:50;;;;;;;3.37;3.17;;;9.00;99.90;;;;;;5199642;27;20352;-73
2024/04/17 07:22:16;;;;;;;1.42;1.42;;;9.00;99.90;;;;;;5180920;27;20479;-73
2024/04/17 07:24:44;;;;;;;1.40;1.40;;;9.00;99.90;;;;;;5183616;27;20350;-73
2024/04/17 07:27:13;;;;;;;1.58;1.58;;;9.00;99.90;;;;;;5190450;27;22576;-72
2024/04/17 07:29:41;;;;;;;2.15;2.05;;;9.00;99.90;;;;;;5195236;27;20245;-72
2024/04/17 07:32:07;;;;;;;1.55;1.45;;;9.10;99.90;;;;;;5187539;27;20345;-72
2024/04/17 07:34:35;;;;;;;1.80;1.70;;;9.20;99.90;;;;;;5185361;27;20288;-72
2024/04/17 07:37:02;;;;;;;3.00;1.90;;;9.20;99.90;;;;;;5179080;27;20253;-73
2024/04/17 07:39:31;;;;;;;1.80;1.70;;;9.30;99.90;;;;;;5197380;27;20283;-72
2024/04/17 07:41:56;;;;;;;2.28;1.40;;;9.30;99.90;;;;;;5188769;27;20761;-73
2024/04/17 07:44:29;;;;;;;1.60;1.60;;;9.40;99.90;;;;;;5189385;27;20361;-73
2024/04/17 07:46:54;;;;;;;1.35;1.30;;;9.40;99.90;;;;;;5186313;27;20277;-73
2024/04/17 07:49:23;;;;;;;1.20;1.20;;;9.40;99.90;;;;;;5186435;27;20241;-73
2024/04/17 07:51:48;;;;;;;2.45;1.83;;;9.50;99.90;;;;;;5190395;27;20850;-71
2024/04/17 07:54:17;;;;;;;1.33;1.33;;;9.50;99.90;;;;;;5193495;27;20242;-73
2024/04/17 07:56:43;;;;;;;1.65;1.55;;;9.60;99.90;;;;;;5195824;27;20281;-72
2024/04/17 07:59:11;;;;;;;2.03;1.93;;;9.60;99.90;;;;;;5200161;27;20245;-73
2024/04/17 08:01:39;;;;;;;1.60;1.50;;;9.70;99.90;;;;;;5187019;27;20250;-72
2024/04/17 08:04:08;;;;;;;1.25;1.25;;;9.70;99.90;;;;;;5202123;27;21776;-73
2024/04/17 08:06:33;;;;;;;0.98;0.98;;;9.80;99.90;;;;;;5204065;27;20271;-73
2024/04/17 08:09:02;;;;;;;1.90;1.40;;;9.80;99.90;;;;;;5202050;27;20241;-72
2024/04/17 08:11:34;;;;;;;3.17;2.97;;;9.80;99.90;;;;;;5205219;27;20253;-72
2024/04/17 08:14:03;;;;;;;4.13;1.40;;;9.80;99.90;;;;;;5199820;27;20396;-72
2024/04/17 08:16:28;;;;;;;3.63;2.15;;;9.90;99.90;;;;;;5199353;27;20305;-73
2024/04/17 08:18:59;;;;;;;1.83;1.70;;;10.00;99.90;;;;;;5189131;27;20346;-73
2024/04/17 08:21:25;;;;;;;1.10;1.00;;;10.10;99.90;;;;;;5196946;27;20287;-72
2024/04/17 08:23:54;;;;;;;5.60;1.13;;;10.10;99.90;;;;;;5200932;27;20324;-72
2024/04/17 08:26:19;;;;;;;2.17;1.33;;;10.20;99.90;;;;;;5205150;27;20331;-72
2024/04/17 08:28:48;;;;;;;2.33;2.13;;;10.20;99.90;;;;;;5205784;27;20253;-73
2024/04/17 08:31:13;;;;;;;1.55;1.45;;;10.30;99.90;;;;;;5204553;27;20299;-72
2024/04/17 08:33:42;;;;;;;2.53;1.50;;;10.40;99.90;;;;;;5199716;27;20245;-71
2024/04/17 08:36:10;;;;;;;1.73;1.63;;;10.50;99.90;;;;;;5196211;27;20237;-72
2024/04/17 08:38:39;;;;;;;1.45;1.45;;;10.50;99.90;;;;;;5196707;27;20348;-72
2024/04/17 08:41:06;;;;;;;2.00;1.90;;;10.50;99.90;;;;;;5193072;27;20746;-73
2024/04/17 08:43:38;;;;;;;2.03;1.92;;;10.50;99.90;;;;;;5197977;27;20250;-73
2024/04/17 08:46:05;;;;;;;2.45;2.35;;;10.60;99.90;;;;;;5183241;27;20417;-73
2024/04/17 08:48:35;;;;;;;1.63;1.57;;;10.60;99.90;;;;;;5181874;27;20266;-73
2024/04/17 08:51:02;;;;;;;1.60;1.50;;;10.70;99.90;;;;;;5182786;27;21247;-72
2024/04/17 08:53:35;;;;;;;2.20;2.10;;;10.70;99.90;;;;;;5178260;27;20575;-72
2024/04/17 08:56:01;;;;;;;1.33;1.33;;;10.80;99.90;;;;;;5181610;27;20490;-73
2024/04/17 08:58:30;;;;;;;1.10;1.10;;;10.70;99.90;;;;;;5192636;27;21114;-73
2024/04/17 09:00:57;;;;;;;1.35;1.15;;;10.70;99.90;;;;;;5194154;27;20320;-70
2024/04/17 09:03:26;;;;;;;1.58;1.48;;;10.70;99.90;;;;;;5203073;27;20284;-71
2024/04/17 09:05:53;;;;;;;1.15;1.15;;;10.70;99.90;;;;;;5203364;27;20744;-70
2024/04/17 09:08:21;;;;;;;1.75;1.00;;;10.70;99.90;;;;;;5193696;27;20356;-70
2024/04/17 09:10:50;;;;;;;0.50;0.50;;;10.70;99.90;;;;;;5178512;27;20288;-70
2024/04/17 09:13:19;;;;;;;1.50;0.98;;;10.80;99.90;;;;;;5197484;27;20241;-70
2024/04/17 09:15:45;;;;;;;1.00;1.00;;;10.80;99.90;;;;;;5203853;27;20803;-71
2024/04/17 09:18:14;;;;;;;1.10;1.10;;;10.80;99.90;;;;;;5200225;27;20244;-71
2024/04/17 09:20:42;;;;;;;1.48;1.48;;;10.90;99.90;;;;;;5203595;27;20264;-73
2024/04/17 09:23:11;;;;;;;0.60;0.60;;;10.90;99.90;;;;;;5197167;27;20242;-73
2024/04/17 09:25:37;;;;;;;0.50;0.50;;;10.90;99.90;;;;;;5203182;27;20584;-74
2024/04/17 09:28:12;;;;;;;0.77;0.77;;;10.90;99.90;;;;;;5202601;27;20244;-72
2024/04/17 09:30:40;;;;;;;0.75;0.75;;;10.90;99.90;;;;;;5204566;27;20508;-73
2024/04/17 09:33:10;;;;;;;0.80;0.80;;;10.90;99.90;;;;;;5203656;27;20249;-73
2024/04/17 09:35:37;;;;;;;0.50;0.50;;;11.00;99.90;;;;;;5193618;27;20711;-73
2024/04/17 09:38:10;;;;;;;1.17;0.97;;;11.00;99.90;;;;;;5200867;27;21542;-72
2024/04/17 09:40:36;;;;;;;0.60;0.60;;;11.00;99.90;;;;;;5195144;27;20609;-72
2024/04/17 09:43:09;;;;;;;1.40;1.30;;;11.10;99.90;;;;;;5197776;27;20481;-72
2024/04/17 09:45:36;;;;;;;0.93;0.90;;;11.10;99.90;;;;;;5186679;27;20268;-72
2024/04/17 09:48:07;;;;;;;0.80;0.80;;;11.10;99.90;;;;;;5190014;27;20431;-72
2024/04/17 09:50:34;;;;;;;1.48;1.38;;;11.10;99.90;;;;;;5193487;27;20988;-72
2024/04/17 09:53:04;;;;;;;1.47;1.37;;;11.10;99.90;;;;;;5212270;27;20288;-71
2024/04/17 09:55:31;;;;;;;2.70;2.50;;;11.20;99.90;;;;;;5201534;27;20792;-72
2024/04/17 09:58:01;;;;;;;3.60;2.80;;;11.20;99.90;;;;;;5193554;27;20625;-71
2024/04/17 10:00:30;;;;;;;1.83;1.73;;;11.30;99.90;;;;;;5197337;27;21067;-73
2024/04/17 10:02:59;;;;;;;2.13;2.00;;;11.40;99.90;;;;;;5190134;27;20566;-72
2024/04/17 10:05:26;;;;;;;1.20;1.20;;;11.40;99.90;;;;;;5200475;27;20612;-72
2024/04/17 10:07:55;;;;;;;0.80;0.80;;;11.40;99.90;;;;;;5192793;27;20603;-73
2024/04/17 10:10:21;;;;;;;1.50;1.00;;;11.40;99.90;;;;;;5197589;27;21439;-72
2024/04/17 10:12:52;;;;;;;0.60;0.60;;;11.40;99.90;;;;;;5201132;27;20508;-73
2024/04/17 10:15:18;;;;;;;0.60;0.60;;;11.40;98.20;;;;;;5192565;27;20867;-73
2024/04/17 10:17:49;;;;;;;1.60;0.90;;;11.40;98.40;;;;;;5194240;27;20488;-73
2024/04/17 10:20:28;;;;;;;1.00;1.00;;;11.40;97.70;;;;;;5183073;27;20969;-73
2024/04/17 10:23:08;;;;;;;1.40;1.40;;;11.50;98.50;;;;;;5190612;27;20478;-72
2024/04/17 10:25:44;;;;;;;0.70;0.70;;;11.60;99.20;;;;;;5197293;27;20633;-73
2024/04/17 10:28:14;;;;;;;0.80;0.80;;;11.70;97.40;;;;;;5187542;27;20783;-72
2024/04/17 10:30:40;;;;;;;0.60;0.60;;;11.70;97.00;;;;;;5186657;27;20790;-73
2024/04/17 10:33:22;;;;;;;0.70;0.70;;;11.80;97.20;;;;;;5200786;27;20491;-73
2024/04/17 10:35:48;;;;;;;0.87;0.87;;;11.90;95.50;;;;;;5195156;27;20573;-72
2024/04/17 10:38:17;;;;;;;1.63;1.63;;;11.90;97.40;;;;;;5185808;27;21072;-73
2024/04/17 10:40:44;;;;;;;1.27;1.27;;;11.80;98.20;;;;;;5189911;27;20533;-73
2024/04/17 10:43:16;;;;;;;1.67;1.57;;;11.70;98.90;;;;;;5186306;27;20477;-73
2024/04/17 10:45:45;;;;;;;0.93;0.93;;;11.70;99.20;;;;;;5184466;27;20569;-75
2024/04/17 10:48:17;;;;;;;1.63;1.30;;;11.70;99.90;;;;;;5207853;27;21064;-73
2024/04/17 10:50:46;;;;;;;0.80;0.80;;;11.80;97.90;;;;;;5204756;27;20561;-75
2024/04/17 10:53:16;;;;;;;0.50;0.50;;;11.80;95.50;;;;;;5196603;27;20489;-72
2024/04/17 10:55:42;;;;;;;0.70;0.70;;;11.90;95.10;;;;;;5202052;27;21023;-73
2024/04/17 10:58:14;;;;;;;0.47;0.47;;;11.90;95.90;;;;;;5196927;27;21343;-71
2024/04/17 11:00:40;;;;;;;2.00;0.80;;;11.80;95.60;;;;;;5193463;27;20583;-71
2024/04/17 11:03:09;;;;;;;0.67;0.67;;;11.80;96.10;;;;;;5197158;27;21046;-71
2024/04/17 11:05:34;;;;;;;0.40;0.40;;;11.70;95.40;;;;;;5202102;27;20443;-71
2024/04/17 11:08:06;;;;;;;0.63;0.63;;;11.70;95.40;;;;;;5189715;27;20613;-72
2024/04/17 11:10:31;;;;;;;1.17;0.73;;;11.70;95.00;;;;;;5186797;27;20258;-72
2024/04/17 11:13:00;;;;;;;0.60;0.60;;;11.70;94.30;;;;;;5187670;27;20490;-73
2024/04/17 11:15:26;;;;;;;0.83;0.70;;;11.90;95.10;;;;;;5187822;27;20347;-70
2024/04/17 11:17:54;;;;;;;1.00;1.00;;;12.10;95.40;;;;;;5189260;27;21015;-72
2024/04/17 11:20:20;;;;;;;0.60;0.60;;;12.30;96.50;;;;;;5183901;27;20576;-70
2024/04/17 11:22:48;;;;;;;0.90;0.90;;;12.40;95.40;;;;;;5188572;27;20482;-72
2024/04/17 11:25:18;;;;;;;1.00;1.00;;;12.40;95.30;;;;;;5191937;27;20918;-74
2024/04/17 11:27:47;;;;;;;1.57;1.47;;;12.40;95.00;;;;;;5192278;27;20748;-74
2024/04/17 11:30:19;;;;;;;1.07;1.07;;;12.30;94.90;;;;;;5186907;27;20557;-71
2024/04/17 11:32:48;;;;;;;0.60;0.60;;;12.30;94.10;;;;;;5196121;27;20488;-73
2024/04/17 11:35:15;;;;;;;3.40;0.70;;;12.20;94.00;;;;;;5186624;27;20582;-74
2024/04/17 11:37:44;;;;;;;0.70;0.70;;;12.30;94.00;;;;;;5193321;27;20523;-74
2024/04/17 11:40:10;;;;;;;0.70;0.70;;;12.30;93.60;;;;;;5179794;27;20539;-74
2024/04/17 11:42:43;;;;;;;0.93;0.93;;;12.30;93.90;;;;;;5189088;27;20603;-72
2024/04/17 11:45:12;;;;;;;0.40;0.40;;;12.30;93.90;;;;;;5193450;27;20628;-73
2024/04/17 11:47:40;;;;;;;10.30;9.40;;;12.40;93.30;;;;;;5190040;27;20620;-73
2024/04/17 11:50:09;;;;;;;0.40;0.40;;;12.40;93.20;;;;;;5199298;27;20469;-73
2024/04/17 11:52:37;;;;;;;0.77;0.70;;;12.50;93.50;;;;;;5187509;27;20496;-72
2024/04/17 11:55:03;;;;;;;0.60;0.60;;;12.50;93.40;;;;;;5192813;27;20593;-71
2024/04/17 11:57:32;;;;;;;0.50;0.50;;;12.50;93.30;;;;;;5193540;27;21103;-72
2024/04/17 12:00:00;;;;;;;1.07;1.07;;;12.50;93.60;;;;;;5199487;27;20488;-74
2024/04/17 12:02:35;;;;;;;0.70;0.70;;;12.40;92.80;;;;;;5210173;27;20585;-72
2024/04/17 12:05:01;;;;;;;0.53;0.53;;;12.40;93.50;;;;;;5205447;27;21002;-73
2024/04/17 12:07:33;;;;;;;0.70;0.70;;;12.30;92.40;;;;;;5203420;27;20473;-72
2024/04/17 12:09:59;;;;;;;0.50;0.50;;;12.40;91.70;;;;;;5200367;27;20598;-73
2024/04/17 12:12:34;;;;;;;0.47;0.47;;;12.40;92.50;;;;;;5193677;27;20480;-72
2024/04/17 12:15:07;;;;;;;0.30;0.30;;;12.40;91.00;;;;;;5199948;27;20537;-71
2024/04/17 12:17:37;;;;;;;1.43;0.60;;;12.40;90.20;;;;;;5199910;27;20536;-73
2024/04/17 12:20:10;;;;;;;0.90;0.63;;;12.40;91.20;;;;;;5200016;27;20598;-71
2024/04/17 12:22:39;;;;;;;0.37;0.30;;;12.50;90.00;;;;;;5203991;27;20579;-73
2024/04/17 12:27:54;;;;;;;0.30;0.30;;;12.50;89.10;;;;;;5204515;27;20589;-73
2024/04/17 12:30:25;;;;;;;1.07;0.97;;;12.50;86.80;;;;;;5194410;27;20562;-74
2024/04/17 12:32:53;;;;;;;0.40;0.40;;;12.60;88.00;;;;;;5196484;27;20544;-72
2024/04/17 12:35:21;;;;;;;0.50;0.50;;;12.70;87.40;;;;;;5194221;27;20997;-72
2024/04/17 12:37:50;;;;;;;0.50;0.30;;;12.70;89.20;;;;;;5195437;27;20523;-72
2024/04/17 12:40:18;;;;;;;0.40;0.40;;;12.70;84.60;;;;;;5195207;27;20609;-72
2024/04/17 12:42:47;;;;;;;0.43;0.40;;;12.80;85.70;;;;;;5194139;27;20556;-73
2024/04/17 12:45:13;;;;;;;0.50;0.50;;;12.90;86.30;;;;;;5190955;27;20600;-74
2024/04/17 12:47:44;;;;;;;0.30;0.30;;;13.00;85.70;;;;;;5199566;27;20922;-73
2024/04/17 12:50:13;;;;;;;0.43;0.43;;;13.10;86.40;;;;;;5195452;27;20600;-73
2024/04/17 12:52:38;;;;;;;0.67;0.37;;;13.20;84.60;;;;;;5196172;27;20481;-72
2024/04/17 12:55:07;;;;;;;0.30;0.30;;;13.20;88.40;;;;;;5195549;27;20840;-72
2024/04/17 12:57:36;;;;;;;1.23;0.47;;;13.20;84.80;;;;;;5198750;27;20581;-71
2024/04/17 13:00:05;;;;;;;0.53;0.53;;;13.20;85.20;;;;;;5201215;27;21033;-71
2024/04/17 13:02:33;;;;;;;1.03;0.60;;;13.20;87.20;;;;;;5200695;27;20532;-71
2024/04/17 13:05:02;;;;;;;0.43;0.43;;;13.20;87.80;;;;;;5198592;27;20469;-71
2024/04/17 13:07:35;;;;;;;0.47;0.47;;;13.30;86.20;;;;;;5201326;27;20533;-71
2024/04/17 13:10:09;;;;;;;2.07;0.97;;;13.30;85.70;;;;;;5196009;27;20485;-72
2024/04/17 13:12:40;;;;;;;2.67;0.93;;;13.50;84.90;;;;;;5198931;27;20500;-73
2024/04/17 13:15:14;;;;;;;0.20;0.20;;;13.70;82.60;;;;;;5191435;27;20537;-72
2024/04/17 13:17:51;;;;;;;0.70;0.70;;;13.70;81.50;;;;;;5191538;27;20500;-73
2024/04/17 13:20:20;;;;;;;0.50;0.50;;;13.80;83.40;;;;;;5192838;27;21046;-72
2024/04/17 13:22:48;;;;;;;0.60;0.60;;;13.70;78.40;;;;;;5195855;27;20807;-72
2024/04/17 13:25:14;;;;;;;0.93;0.80;;;13.70;83.70;;;;;;5191569;27;20557;-72
2024/04/17 13:27:43;;;;;;;0.83;0.83;;;13.60;88.00;;;;;;5195827;27;20475;-72
2024/04/17 13:30:09;;;;;;;0.60;0.53;;;13.50;88.40;;;;;;5190919;27;20481;-71
2024/04/17 13:32:38;;;;;;;0.50;0.50;;;13.40;89.60;;;;;;5196688;27;20481;-72
2024/04/17 13:35:04;;;;;;;1.27;0.60;;;13.30;90.40;;;;;;5198428;27;20573;-72
2024/04/17 13:37:35;;;;;;;0.97;0.60;;;13.30;90.10;;;;;;5202341;27;20465;-72
2024/04/17 13:40:02;;;;;;;3.20;0.70;;;13.20;89.30;;;;;;5201053;27;20480;-73
2024/04/17 13:42:39;;;;;;;1.10;1.00;;;13.10;90.30;;;;;;5199859;27;20556;-70
2024/04/17 13:45:08;;;;;;;0.40;0.40;;;13.00;91.10;;;;;;5197031;27;20581;-70
2024/04/17 13:47:37;;;;;;;1.17;0.63;;;13.00;92.10;;;;;;5188047;27;20866;-71
2024/04/17 13:50:09;;;;;;;0.70;0.70;;;13.00;92.40;;;;;;5199902;27;20553;-71
2024/04/17 13:52:40;;;;;;;0.90;0.90;;;12.80;95.80;;;;;;5202488;27;20902;-71
2024/04/17 13:55:06;;;;;;;1.00;1.00;;;12.80;97.70;;;;;;5201031;27;20485;-72
2024/04/17 13:57:39;;;;;;;1.33;1.20;;;12.80;97.80;;;;;;5191060;27;20477;-73
2024/04/17 14:00:07;;;;;;;1.20;1.10;;;12.70;98.20;;;;;;5197789;27;21182;-72
2024/04/17 14:02:38;;;;;;;2.73;0.80;;;12.70;98.90;;;;;;5196523;27;20500;-73
2024/04/17 14:05:04;;;;;;;1.47;0.77;;;12.60;99.10;;;;;;5204260;27;21081;-70
2024/04/17 14:07:33;;;;;;;1.50;1.40;;;12.60;99.90;;;;;;5206146;27;20473;-70
2024/04/17 14:10:02;;;;;;;0.97;0.97;;;12.50;99.90;;;;;;5204309;27;20480;-69
2024/04/17 14:12:33;;;;;;;0.97;0.97;;;12.40;99.90;;;;;;5196985;27;20510;-69
2024/04/17 14:14:59;;;;;;;1.40;0.80;;;12.40;99.90;;;;;;5208769;27;20481;-69
2024/04/17 14:17:32;;;;;;;0.90;0.90;;;12.30;99.90;;;;;;5204285;27;20541;-69
2024/04/17 14:20:02;;;;;;;1.83;1.17;;;12.30;99.90;;;;;;5202618;27;20782;-68
2024/04/17 14:22:32;;;;;;;6.90;1.10;;;12.30;99.90;;;;;;5199294;27;20481;-69
2024/04/17 14:25:05;;;;;;;0.97;0.97;;;12.30;99.90;;;;;;5198443;27;21055;-69
2024/04/17 14:27:34;;;;;;;3.17;1.53;;;12.30;99.90;;;;;;5203556;27;20545;-69
2024/04/17 14:30:05;;;;;;;0.90;0.90;;;12.20;99.90;;;;;;5199790;27;20537;-71
2024/04/17 14:32:50;;;;;;;0.87;0.87;;;12.20;99.90;;;;;;5198508;27;20601;-70
2024/04/17 14:35:22;;;;;;;0.80;0.80;;;12.30;99.90;;;;;;5202146;27;21099;-70
2024/04/17 14:37:54;;;;;;;0.90;0.90;;;12.20;99.90;;;;;;5199724;27;20484;-69
2024/04/17 14:40:23;;;;;;;0.60;0.60;;;12.30;99.90;;;;;;5199930;27;20541;-69
2024/04/17 14:42:57;;;;;;;0.80;0.80;;;12.40;99.90;;;;;;5206927;27;20488;-70
2024/04/17 14:45:24;;;;;;;1.53;1.53;;;12.30;99.90;;;;;;5203591;27;20551;-70
2024/04/17 14:47:53;;;;;;;1.50;1.50;;;12.10;99.90;;;;;;5204493;27;20536;-71
2024/04/17 14:50:21;;;;;;;1.30;1.30;;;12.10;99.90;;;;;;5203508;27;20504;-71
2024/04/17 14:52:50;;;;;;;1.23;1.23;;;12.00;99.90;;;;;;5202462;27;20909;-70
2024/04/17 14:55:20;;;;;;;1.73;1.63;;;12.00;99.90;;;;;;5198010;27;20482;-72
2024/04/17 14:57:55;;;;;;;1.20;1.20;;;12.00;99.90;;;;;;5207135;27;20541;-72
2024/04/17 15:00:24;;;;;;;1.20;1.03;;;12.10;99.90;;;;;;5206427;27;20571;-72
2024/04/17 15:02:53;;;;;;;1.33;1.33;;;12.10;99.90;;;;;;5205763;27;20605;-72
2024/04/17 15:05:23;;;;;;;0.63;0.63;;;12.10;99.90;;;;;;5201413;27;20469;-71
2024/04/17 15:07:52;;;;;;;1.47;0.57;;;12.10;99.90;;;;;;5201566;27;20620;-71
2024/04/17 15:10:23;;;;;;;1.03;0.73;;;11.90;99.90;;;;;;5194296;27;20478;-71
2024/04/17 15:12:57;;;;;;;0.80;0.80;;;11.60;99.90;;;;;;5202221;27;20473;-70
2024/04/17 15:15:24;;;;;;;0.50;0.50;;;11.50;99.90;;;;;;5201679;27;20634;-72
2024/04/17 15:17:53;;;;;;;0.60;0.60;;;11.30;99.90;;;;;;5204727;27;20554;-72
2024/04/17 15:20:20;;;;;;;0.73;0.73;;;11.10;99.90;;;;;;5206482;27;20474;-72
2024/04/17 15:22:51;;;;;;;0.77;0.63;;;11.00;99.90;;;;;;5207116;27;20481;-71
2024/04/17 15:25:18;;;;;;;0.68;0.68;;;11.00;99.90;;;;;;5200688;27;20241;-71
2024/04/17 15:27:48;;;;;;;1.00;1.00;;;10.90;99.90;;;;;;5205875;27;20241;-71
2024/04/17 15:30:20;;;;;;;0.70;0.70;;;10.80;99.90;;;;;;5201267;27;20257;-71
2024/04/17 15:32:49;;;;;;;0.40;0.40;;;10.50;99.90;;;;;;5201596;27;20344;-70
2024/04/17 15:35:18;;;;;;;0.38;0.38;;;10.40;99.90;;;;;;5201172;27;20440;-73
2024/04/17 15:37:50;;;;;;;0.57;0.40;;;10.30;99.90;;;;;;5197824;27;20266;-73
2024/04/17 15:40:17;;;;;;;0.52;0.52;;;10.20;99.90;;;;;;5199632;27;20316;-73
2024/04/17 15:42:46;;;;;;;0.32;0.32;;;10.00;99.90;;;;;;5203555;27;20249;-72
2024/04/17 15:45:18;;;;;;;0.70;0.50;;;9.90;99.90;;;;;;5201487;27;20257;-73
2024/04/17 15:47:50;;;;;;;0.63;0.63;;;9.70;99.90;;;;;;5198798;27;20249;-72
2024/04/17 15:50:18;;;;;;;0.65;0.65;;;9.50;99.90;;;;;;5201619;27;20318;-72
2024/04/17 15:52:47;;;;;;;0.77;0.77;;;9.30;99.90;;;;;;5192989;27;20320;-72
2024/04/17 15:55:13;;;;;;;0.70;0.70;;;9.20;99.90;;;;;;5200720;27;20359;-73
2024/04/17 15:57:44;;;;;;;0.85;0.85;;;9.10;99.90;;;;;;5197404;27;20241;-71
2024/04/17 16:00:17;;;;;;;0.75;0.75;;;9.10;99.90;;;;;;5199434;27;20257;-72
2024/04/17 16:02:48;;;;;;;0.60;0.60;;;9.10;99.90;;;;;;5199844;27;20245;-72
2024/04/17 16:05:15;;;;;;;0.85;0.85;;;9.10;99.90;;;;;;5202665;27;20355;-71
2024/04/17 16:11:06;;;;;;;1.20;1.20;;;9.00;99.90;;;;;;5202773;27;20329;-72
2024/04/17 16:13:34;;;;;;;1.02;0.70;;;9.00;99.90;;;;;;5199441;27;20321;-72
2024/04/17 16:16:06;;;;;;;1.77;1.10;;;9.10;99.90;;;;;;5201301;27;20393;-71
2024/04/17 16:18:35;;;;;;;0.80;0.80;;;9.10;99.90;;;;;;5201127;27;20296;-72
2024/04/17 16:21:12;;;;;;;0.65;0.60;;;9.20;99.90;;;;;;5201671;27;20341;-72
2024/04/17 16:23:44;;;;;;;0.60;0.60;;;9.20;99.90;;;;;;5200066;27;20279;-71
2024/04/17 16:26:14;;;;;;;0.80;0.80;;;9.30;99.90;;;;;;5194390;27;20312;-71
2024/04/17 16:28:50;;;;;;;1.25;1.15;;;9.30;99.90;;;;;;5200305;27;20245;-71
2024/04/17 16:31:23;;;;;;;1.30;1.20;;;9.30;99.90;;;;;;5201646;27;20264;-71
2024/04/17 16:33:55;;;;;;;1.02;0.80;;;9.30;99.90;;;;;;5203758;27;20726;-72
2024/04/17 16:36:23;;;;;;;0.77;0.77;;;9.30;99.90;;;;;;5200672;27;20284;-71
2024/04/17 16:38:52;;;;;;;0.50;0.50;;;9.20;99.90;;;;;;5200233;27;20245;-71
2024/04/17 16:41:23;;;;;;;0.95;0.95;;;9.20;99.90;;;;;;5202323;27;20289;-71
2024/04/17 16:43:50;;;;;;;0.95;0.93;;;9.10;99.90;;;;;;5204018;27;20305;-71
2024/04/17 16:46:21;;;;;;;1.15;0.60;;;9.10;99.90;;;;;;5201394;27;20249;-73
2024/04/17 16:48:48;;;;;;;1.70;1.40;;;9.10;99.90;;;;;;5204689;27;20253;-72
2024/04/17 16:51:25;;;;;;;4.05;3.15;;;9.00;99.90;;;;;;5203233;27;20245;-72
2024/04/17 16:53:53;;;;;;;1.27;1.23;;;9.00;99.90;;;;;;5204787;27;20285;-72
2024/04/17 16:56:25;;;;;;;1.40;1.40;;;9.00;99.90;;;;;;5201468;27;20249;-72
2024/04/17 16:58:53;;;;;;;1.00;1.00;;;8.90;99.90;;;;;;5201077;27;20627;-72
2024/04/17 17:01:29;;;;;;;0.90;0.88;;;8.90;99.90;;;;;;5203943;27;20245;-72
2024/04/17 17:03:59;;;;;;;0.77;0.77;;;8.90;99.90;;;;;;5201570;27;20280;-71